Time;durP1;ratioP1;P1;durP2;ratioP2;P2;SDS_P1;SDS_P2;PMS_P1;PMS_P2;Temp;Humidity;BMP_temperature;BMP_pressure;BME280_temperature;BME280_humidity;BME280_pressure;Samples;Min_cycle;Max_cycle;Signal;HPM_P1;HPM_P2
2021/04/09 00:00:16;;;;;;;63.00;7.80;;;0.80;1.00;;;;;;5071861;28;20261;-67
2021/04/09 00:02:43;;;;;;;60.22;8.10;;;0.80;1.00;;;;;;5071702;28;20204;-67
2021/04/09 00:05:13;;;;;;;64.53;8.40;;;0.80;1.00;;;;;;5071480;28;20261;-67
2021/04/09 00:07:39;;;;;;;67.18;9.77;;;0.70;1.00;;;;;;5072101;28;20197;-67
2021/04/09 00:10:08;;;;;;;64.40;8.70;;;0.70;1.00;;;;;;5071583;28;20289;-67
2021/04/09 00:12:36;;;;;;;62.80;8.77;;;0.70;1.00;;;;;;5071443;28;20386;-67
2021/04/09 00:15:03;;;;;;;62.10;8.27;;;0.70;1.00;;;;;;5071679;28;20645;-67
2021/04/09 00:17:29;;;;;;;63.78;9.00;;;0.70;1.00;;;;;;5071755;28;20231;-67
2021/04/09 00:19:56;;;;;;;69.00;10.90;;;0.70;1.00;;;;;;5071495;28;20315;-67
2021/04/09 00:22:23;;;;;;;75.78;13.65;;;0.60;1.00;;;;;;5071435;28;20312;-67
2021/04/09 00:24:49;;;;;;;75.68;13.90;;;0.60;1.00;;;;;;5071436;28;20582;-67
2021/04/09 00:27:16;;;;;;;75.60;15.25;;;0.60;1.00;;;;;;5071748;28;20220;-67
2021/04/09 00:29:42;;;;;;;76.55;13.93;;;0.50;1.00;;;;;;5071400;28;20231;-67
2021/04/09 00:32:09;;;;;;;76.88;14.93;;;0.50;1.00;;;;;;5071823;28;20247;-67
2021/04/09 00:34:35;;;;;;;80.50;17.45;;;0.50;1.00;;;;;;5071549;28;20205;-67
2021/04/09 00:37:01;;;;;;;73.72;14.80;;;0.40;1.00;;;;;;5071273;28;20319;-67
2021/04/09 00:39:28;;;;;;;81.30;16.35;;;0.40;1.00;;;;;;5071159;28;20239;-67
2021/04/09 00:41:55;;;;;;;84.55;17.17;;;0.40;1.00;;;;;;5071097;28;20304;-67
2021/04/09 00:44:21;;;;;;;74.20;12.75;;;0.30;1.00;;;;;;5071575;28;20209;-67
2021/04/09 00:46:48;;;;;;;74.18;13.25;;;0.30;1.00;;;;;;5071540;28;20201;-67
2021/04/09 00:49:14;;;;;;;66.82;10.63;;;0.30;1.00;;;;;;5071481;28;20236;-67
2021/04/09 00:51:40;;;;;;;67.82;10.85;;;0.20;1.00;;;;;;5071814;28;20215;-67
2021/04/09 00:54:08;;;;;;;66.25;10.45;;;0.20;1.00;;;;;;5071359;28;20204;-67
2021/04/09 00:56:36;;;;;;;66.57;9.93;;;0.10;1.00;;;;;;5072739;28;20313;-67
2021/04/09 00:59:03;;;;;;;64.53;9.77;;;0.10;1.00;;;;;;5073583;28;20600;-67
2021/04/09 01:01:30;;;;;;;67.10;11.00;;;0.10;1.00;;;;;;5074936;28;20201;-67
2021/04/09 01:03:57;;;;;;;72.35;13.13;;;0.00;1.00;;;;;;5074661;28;20205;-67
2021/04/09 01:06:23;;;;;;;69.70;12.75;;;0.00;1.00;;;;;;5074699;28;20675;-67
2021/04/09 01:08:50;;;;;;;69.20;11.05;;;-0.10;1.00;;;;;;5074513;28;20312;-67
2021/04/09 01:11:17;;;;;;;63.03;9.52;;;-0.10;1.00;;;;;;5074959;28;20644;-67
2021/04/09 01:13:45;;;;;;;72.85;12.52;;;-0.10;1.00;;;;;;5074716;28;20295;-67
2021/04/09 01:16:15;;;;;;;72.20;14.10;;;-0.20;1.00;;;;;;5074430;28;20290;-67
2021/04/09 01:18:49;;;;;;;74.07;14.07;;;-0.20;1.00;;;;;;5074310;28;20231;-67
2021/04/09 01:21:28;;;;;;;70.55;11.82;;;-0.20;1.00;;;;;;5074343;28;20295;-67
2021/04/09 01:24:04;;;;;;;69.72;11.98;;;-0.20;1.00;;;;;;5074477;28;20217;-67
2021/04/09 01:27:18;;;;;;;69.93;11.77;;;-0.20;1.00;;;;;;5074557;28;20204;-67
2021/04/09 01:30:27;;;;;;;69.45;12.10;;;-0.20;1.00;;;;;;5012178;28;20218;-67
2021/04/09 01:32:56;;;;;;;68.95;12.13;;;-0.20;1.00;;;;;;5075010;28;20211;-67
2021/04/09 01:35:24;;;;;;;68.43;11.38;;;-0.30;1.00;;;;;;5074694;28;20231;-67
2021/04/09 01:37:56;;;;;;;68.78;11.48;;;-0.30;1.00;;;;;;5074203;28;20786;-67
2021/04/09 01:40:29;;;;;;;67.85;10.65;;;-0.30;1.00;;;;;;5073975;28;20302;-67
2021/04/09 01:42:59;;;;;;;67.03;10.82;;;-0.30;1.00;;;;;;5074039;28;20209;-67
2021/04/09 01:45:27;;;;;;;66.50;9.90;;;-0.30;1.00;;;;;;5073968;28;20200;-67
2021/04/09 01:47:55;;;;;;;66.55;10.10;;;-0.30;1.00;;;;;;5073912;28;20761;-67
2021/04/09 01:50:25;;;;;;;64.72;10.52;;;-0.40;1.00;;;;;;5073856;28;20209;-67
2021/04/09 01:52:53;;;;;;;63.88;10.07;;;-0.40;1.00;;;;;;5073959;28;20201;-67
2021/04/09 01:55:21;;;;;;;65.72;9.45;;;-0.40;1.00;;;;;;5073984;28;20300;-64
2021/04/09 01:57:48;;;;;;;67.28;10.20;;;-0.50;1.00;;;;;;5073711;28;20658;-65
2021/04/09 02:00:17;;;;;;;62.97;8.35;;;-0.50;1.00;;;;;;5073718;28;20419;-66
2021/04/09 02:02:45;;;;;;;62.08;8.90;;;-0.50;1.00;;;;;;5073605;28;20299;-66
2021/04/09 02:05:16;;;;;;;64.90;9.65;;;-0.50;1.00;;;;;;5073460;28;20673;-66
2021/04/09 02:07:45;;;;;;;65.20;8.75;;;-0.60;1.00;;;;;;5072961;28;20688;-66
2021/04/09 02:10:13;;;;;;;62.95;9.13;;;-0.60;1.00;;;;;;5073627;28;20208;-66
2021/04/09 02:12:41;;;;;;;62.83;9.15;;;-0.60;1.00;;;;;;5073277;28;20208;-66
2021/04/09 02:15:10;;;;;;;62.55;9.00;;;-0.60;1.00;;;;;;5073364;28;20233;-66
2021/04/09 02:17:37;;;;;;;67.95;11.38;;;-0.70;1.00;;;;;;5073276;28;20366;-66
2021/04/09 02:20:08;;;;;;;64.65;9.73;;;-0.70;1.00;;;;;;5073479;28;20708;-66
2021/04/09 02:22:35;;;;;;;67.82;9.52;;;-0.70;1.00;;;;;;5073198;28;20299;-66
2021/04/09 02:25:01;;;;;;;65.07;8.98;;;-0.70;1.00;;;;;;5073233;28;20670;-66
2021/04/09 02:27:28;;;;;;;64.25;9.30;;;-0.80;1.00;;;;;;5073292;28;20308;-66
2021/04/09 02:29:55;;;;;;;67.95;10.60;;;-0.80;1.00;;;;;;5072916;28;20227;-66
2021/04/09 02:32:22;;;;;;;65.25;10.10;;;-0.80;1.00;;;;;;5073142;28;20209;-66
2021/04/09 02:34:49;;;;;;;63.15;10.35;;;-0.80;1.00;;;;;;5072998;28;20236;-66
2021/04/09 02:37:17;;;;;;;72.15;11.40;;;-0.80;1.00;;;;;;5073062;28;20605;-66
2021/04/09 02:39:46;;;;;;;64.25;9.90;;;-0.80;1.00;;;;;;5072793;28;20427;-66
2021/04/09 02:42:13;;;;;;;65.47;9.05;;;-0.80;1.00;;;;;;5072745;28;20673;-66
2021/04/09 02:44:39;;;;;;;63.90;10.30;;;-0.80;1.00;;;;;;5072780;28;20235;-66
2021/04/09 02:47:08;;;;;;;64.38;10.10;;;-0.80;1.00;;;;;;5073005;28;20701;-66
2021/04/09 02:49:39;;;;;;;65.90;9.80;;;-0.90;1.00;;;;;;5072766;28;20344;-66
2021/04/09 02:52:07;;;;;;;63.58;9.27;;;-0.90;1.00;;;;;;5072544;28;20240;-66
2021/04/09 02:54:35;;;;;;;68.15;10.20;;;-0.90;1.00;;;;;;5072616;28;20209;-66
2021/04/09 02:57:04;;;;;;;65.28;10.35;;;-0.90;1.00;;;;;;5072323;28;20727;-66
2021/04/09 02:59:33;;;;;;;63.60;9.63;;;-0.90;1.00;;;;;;5072384;28;20316;-66
2021/04/09 03:02:00;;;;;;;66.55;10.65;;;-0.90;1.00;;;;;;5072434;28;20258;-66
2021/04/09 03:04:29;;;;;;;64.50;9.90;;;-0.90;1.00;;;;;;5072385;28;20209;-67
2021/04/09 03:06:56;;;;;;;64.40;9.27;;;-0.90;1.00;;;;;;5072484;28;20208;-67
2021/04/09 03:09:23;;;;;;;67.85;10.73;;;-0.90;1.00;;;;;;5072335;28;20708;-67
2021/04/09 03:11:50;;;;;;;64.47;9.57;;;-0.90;1.00;;;;;;5072078;28;20260;-67
2021/04/09 03:14:18;;;;;;;64.03;9.55;;;-0.90;1.00;;;;;;5072520;28;20321;-65
2021/04/09 03:16:48;;;;;;;67.20;9.45;;;-0.80;1.00;;;;;;5072314;28;20229;-66
2021/04/09 03:19:14;;;;;;;64.60;9.70;;;-0.80;1.00;;;;;;5071614;28;20252;-66
2021/04/09 03:21:41;;;;;;;63.67;10.10;;;-0.80;1.00;;;;;;5071816;28;20236;-66
2021/04/09 03:24:08;;;;;;;63.65;9.75;;;-0.80;1.00;;;;;;5071941;28;20296;-66
2021/04/09 03:26:36;;;;;;;63.50;9.10;;;-0.80;1.00;;;;;;5071932;28;20212;-66
2021/04/09 03:29:02;;;;;;;63.78;9.48;;;-0.80;1.00;;;;;;5072048;28;20315;-66
2021/04/09 03:31:30;;;;;;;64.03;10.52;;;-0.80;1.00;;;;;;5072162;28;20204;-66
2021/04/09 03:33:56;;;;;;;65.13;9.70;;;-0.90;1.00;;;;;;5071992;28;20291;-66
2021/04/09 03:36:23;;;;;;;62.95;9.80;;;-0.90;1.00;;;;;;5071797;28;20312;-66
2021/04/09 03:38:49;;;;;;;63.63;10.25;;;-0.90;1.00;;;;;;5071777;28;20322;-66
2021/04/09 03:41:15;;;;;;;64.63;9.88;;;-0.90;1.00;;;;;;5071874;28;20244;-66
2021/04/09 03:43:42;;;;;;;66.50;9.95;;;-0.90;1.00;;;;;;5071913;28;20540;-67
2021/04/09 03:46:08;;;;;;;63.17;9.93;;;-0.90;1.00;;;;;;5071959;28;20284;-67
2021/04/09 03:48:35;;;;;;;64.95;9.70;;;-1.00;1.00;;;;;;5071809;28;20658;-67
2021/04/09 03:51:02;;;;;;;68.50;10.45;;;-0.90;1.00;;;;;;5071844;28;20311;-67
2021/04/09 03:53:28;;;;;;;67.55;10.98;;;-0.90;1.00;;;;;;5071646;28;20643;-67
2021/04/09 03:55:55;;;;;;;63.78;9.65;;;-0.90;1.00;;;;;;5071826;28;20561;-67
2021/04/09 03:58:21;;;;;;;64.05;9.18;;;-0.90;1.00;;;;;;5071805;28;20577;-67
2021/04/09 04:00:47;;;;;;;66.28;9.52;;;-0.90;1.00;;;;;;5071681;28;20296;-67
2021/04/09 04:03:14;;;;;;;65.43;10.90;;;-0.90;1.00;;;;;;5071746;28;20581;-66
2021/04/09 04:05:41;;;;;;;70.00;10.70;;;-0.90;1.00;;;;;;5071609;28;20685;-66
2021/04/09 04:08:07;;;;;;;65.15;11.23;;;-1.00;1.00;;;;;;5071912;28;20304;-66
2021/04/09 04:10:34;;;;;;;65.82;9.70;;;-1.00;1.00;;;;;;5071685;28;20211;-66
2021/04/09 04:13:00;;;;;;;62.30;9.32;;;-1.00;1.00;;;;;;5071609;28;20219;-66
2021/04/09 04:15:26;;;;;;;66.07;9.20;;;-1.00;1.00;;;;;;5071601;28;20292;-66
2021/04/09 04:17:53;;;;;;;64.03;9.25;;;-1.00;1.00;;;;;;5071449;28;20264;-66
2021/04/09 04:20:19;;;;;;;63.22;10.55;;;-1.10;1.00;;;;;;5071380;28;20233;-66
2021/04/09 04:22:46;;;;;;;64.13;10.20;;;-1.10;1.00;;;;;;5071879;28;20629;-66
2021/04/09 04:25:13;;;;;;;66.07;10.32;;;-1.10;1.00;;;;;;5071545;28;20299;-66
2021/04/09 04:27:39;;;;;;;68.40;11.27;;;-1.10;1.00;;;;;;5071363;28;20287;-66
2021/04/09 04:30:06;;;;;;;71.05;10.75;;;-1.10;1.00;;;;;;5071313;28;20321;-66
2021/04/09 04:32:33;;;;;;;67.03;10.93;;;-1.10;1.00;;;;;;5074962;28;20243;-66
2021/04/09 04:34:59;;;;;;;66.20;9.73;;;-1.10;1.00;;;;;;5075647;28;20640;-66
2021/04/09 04:37:25;;;;;;;71.28;11.98;;;-1.10;1.00;;;;;;5075498;28;20320;-66
2021/04/09 04:39:53;;;;;;;63.13;9.77;;;-1.10;1.00;;;;;;5075149;28;20315;-66
2021/04/09 04:42:19;;;;;;;65.63;10.38;;;-1.20;1.00;;;;;;5075108;28;20291;-66
2021/04/09 04:44:46;;;;;;;67.90;10.60;;;-1.10;1.00;;;;;;5075356;28;20624;-66
2021/04/09 04:47:12;;;;;;;64.85;10.18;;;-1.20;1.00;;;;;;5075173;28;20636;-66
2021/04/09 04:49:38;;;;;;;64.97;11.10;;;-1.20;1.00;;;;;;5074834;28;20316;-66
2021/04/09 04:52:05;;;;;;;63.58;10.10;;;-1.20;1.00;;;;;;5074941;28;20736;-66
2021/04/09 04:54:32;;;;;;;65.13;10.35;;;-1.20;1.00;;;;;;5074831;28;20295;-66
2021/04/09 04:56:59;;;;;;;66.32;10.50;;;-1.20;1.00;;;;;;5074949;28;20229;-66
2021/04/09 04:59:25;;;;;;;63.92;9.98;;;-1.20;1.00;;;;;;5074814;28;20316;-66
2021/04/09 05:01:52;;;;;;;66.93;10.75;;;-1.20;1.00;;;;;;5074738;28;20729;-66
2021/04/09 05:04:18;;;;;;;63.78;10.00;;;-1.10;1.00;;;;;;5074795;28;20216;-66
2021/04/09 05:06:44;;;;;;;66.18;10.40;;;-1.10;1.00;;;;;;5074982;28;20656;-66
2021/04/09 05:09:11;;;;;;;69.90;12.00;;;-1.10;1.00;;;;;;5074782;28;20796;-66
2021/04/09 05:11:37;;;;;;;66.15;10.38;;;-1.00;1.00;;;;;;5074606;28;20295;-66
2021/04/09 05:14:04;;;;;;;64.97;9.95;;;-1.00;1.00;;;;;;5074559;28;20209;-66
2021/04/09 05:16:31;;;;;;;65.03;10.57;;;-0.90;1.00;;;;;;5074450;28;20317;-66
2021/04/09 05:18:57;;;;;;;63.10;9.93;;;-0.90;1.00;;;;;;5074585;28;20262;-66
2021/04/09 05:21:24;;;;;;;65.43;10.55;;;-0.90;1.00;;;;;;5074735;28;20236;-66
2021/04/09 05:23:50;;;;;;;66.45;10.63;;;-0.80;1.00;;;;;;5074256;28;20337;-66
2021/04/09 05:26:16;;;;;;;66.50;10.85;;;-0.80;1.00;;;;;;5074466;28;20324;-66
2021/04/09 05:28:43;;;;;;;66.60;10.30;;;-0.70;1.00;;;;;;5074281;28;20256;-65
2021/04/09 05:31:10;;;;;;;70.40;10.65;;;-0.60;1.00;;;;;;5074177;28;20241;-66
2021/04/09 05:33:36;;;;;;;70.97;11.10;;;-0.50;1.00;;;;;;5074347;28;20208;-66
2021/04/09 05:36:03;;;;;;;67.97;11.18;;;-0.50;1.00;;;;;;5074433;28;20625;-66
2021/04/09 05:38:29;;;;;;;68.72;10.13;;;-0.40;1.00;;;;;;5073966;28;20312;-66
2021/04/09 05:40:56;;;;;;;68.30;10.02;;;-0.40;1.00;;;;;;5073969;28;20221;-66
2021/04/09 05:43:22;;;;;;;65.60;10.35;;;-0.30;1.00;;;;;;5073156;28;20286;-66
2021/04/09 05:45:48;;;;;;;70.50;11.27;;;-0.20;1.00;;;;;;5073813;28;20669;-66
2021/04/09 05:48:17;;;;;;;65.28;10.25;;;-0.20;1.00;;;;;;5074014;28;20353;-66
2021/04/09 05:50:43;;;;;;;66.72;11.25;;;-0.10;1.00;;;;;;5074128;28;20204;-66
2021/04/09 05:53:09;;;;;;;66.28;11.48;;;0.00;1.00;;;;;;5073718;28;20681;-66
2021/04/09 05:55:36;;;;;;;67.20;11.77;;;0.10;1.00;;;;;;5073876;28;20697;-66
2021/04/09 05:58:02;;;;;;;67.38;11.23;;;0.10;1.00;;;;;;5073762;28;20273;-66
2021/04/09 06:00:28;;;;;;;68.00;11.63;;;0.30;1.00;;;;;;5073701;28;20205;-66
2021/04/09 06:02:55;;;;;;;70.38;11.85;;;0.40;1.00;;;;;;5073507;28;20730;-66
2021/04/09 06:05:22;;;;;;;67.82;10.85;;;0.50;1.00;;;;;;5073751;28;20205;-66
2021/04/09 06:07:49;;;;;;;69.43;12.70;;;0.50;1.00;;;;;;5073599;28;20295;-66
2021/04/09 06:10:15;;;;;;;65.28;9.45;;;0.60;1.00;;;;;;5073649;28;20232;-66
2021/04/09 06:12:42;;;;;;;64.57;10.75;;;0.70;1.00;;;;;;5073496;28;20362;-66
2021/04/09 06:15:10;;;;;;;63.33;10.13;;;0.80;1.00;;;;;;5073841;28;20296;-66
2021/04/09 06:17:37;;;;;;;64.65;9.90;;;0.90;1.00;;;;;;5073616;28;20723;-66
2021/04/09 06:20:06;;;;;;;66.97;10.43;;;1.00;1.00;;;;;;5073472;28;20423;-66
2021/04/09 06:22:33;;;;;;;66.28;11.90;;;1.20;1.00;;;;;;5073167;28;20208;-66
2021/04/09 06:25:00;;;;;;;65.53;10.40;;;1.30;1.00;;;;;;5073294;28;20291;-66
2021/04/09 06:27:26;;;;;;;64.72;10.13;;;1.40;1.00;;;;;;5073148;28;20232;-66
2021/04/09 06:29:53;;;;;;;65.38;10.70;;;1.60;1.00;;;;;;5073179;28;20221;-66
2021/04/09 06:32:19;;;;;;;63.42;10.00;;;1.70;1.00;;;;;;5073177;28;20296;-66
2021/04/09 06:34:45;;;;;;;64.55;10.65;;;1.80;1.00;;;;;;5073277;28;20243;-66
2021/04/09 06:37:11;;;;;;;63.85;10.93;;;2.00;1.00;;;;;;5073040;28;20312;-66
2021/04/09 06:39:39;;;;;;;69.38;10.55;;;2.10;1.00;;;;;;5072889;28;20268;-66
2021/04/09 06:42:06;;;;;;;64.20;9.73;;;2.20;1.00;;;;;;5072658;28;20300;-66
2021/04/09 06:44:33;;;;;;;64.38;10.30;;;2.40;1.00;;;;;;5073189;28;20204;-66
2021/04/09 06:46:59;;;;;;;64.38;9.75;;;2.60;1.00;;;;;;5072865;28;20197;-66
2021/04/09 06:49:26;;;;;;;65.03;8.98;;;2.80;1.00;;;;;;5072728;28;20227;-66
2021/04/09 06:51:52;;;;;;;66.35;10.30;;;2.90;1.00;;;;;;5072827;28;20246;-66
2021/04/09 06:54:18;;;;;;;64.50;9.75;;;3.00;1.00;;;;;;5072738;28;20215;-66
2021/04/09 06:56:47;;;;;;;64.25;8.85;;;3.10;1.00;;;;;;5072360;28;20311;-66
2021/04/09 06:59:16;;;;;;;64.28;9.95;;;3.20;1.00;;;;;;5072724;28;20329;-67
2021/04/09 07:01:45;;;;;;;63.15;8.40;;;3.30;1.00;;;;;;5072813;28;20228;-66
2021/04/09 07:04:12;;;;;;;64.72;10.98;;;3.50;1.00;;;;;;5072405;28;20259;-66
2021/04/09 07:06:39;;;;;;;65.80;9.40;;;3.60;1.00;;;;;;5072406;28;20205;-66
2021/04/09 07:09:06;;;;;;;69.60;10.57;;;3.80;1.00;;;;;;5072251;28;20225;-66
2021/04/09 07:11:32;;;;;;;66.88;9.38;;;3.90;1.00;;;;;;5072561;28;20282;-66
2021/04/09 07:14:00;;;;;;;61.47;8.80;;;4.10;1.00;;;;;;5072094;28;20232;-66
2021/04/09 07:16:26;;;;;;;62.85;8.02;;;4.20;1.00;;;;;;5072388;28;20676;-66
2021/04/09 07:18:54;;;;;;;63.40;8.52;;;4.40;1.00;;;;;;5072335;28;20227;-67
2021/04/09 07:21:25;;;;;;;64.25;8.50;;;4.60;1.00;;;;;;5072212;28;20247;-67
2021/04/09 07:24:21;;;;;;;62.92;8.60;;;4.80;1.00;;;;;;5071912;28;20307;-66
2021/04/09 07:26:49;;;;;;;63.75;8.13;;;5.00;1.00;;;;;;5072340;28;20261;-66
2021/04/09 07:29:41;;;;;;;64.10;8.60;;;5.30;1.00;;;;;;5072078;28;20316;-66
2021/04/09 07:32:33;;;;;;;67.13;8.70;;;5.50;1.00;;;;;;5071966;28;20236;-66
2021/04/09 07:35:03;;;;;;;62.30;7.93;;;5.80;1.00;;;;;;5072142;28;20231;-66
2021/04/09 07:37:32;;;;;;;62.00;8.00;;;6.10;1.00;;;;;;5072076;28;20220;-66
2021/04/09 07:40:00;;;;;;;59.33;6.78;;;6.30;1.00;;;;;;5071727;28;20320;-66
2021/04/09 07:42:35;;;;;;;62.88;7.70;;;6.50;1.00;;;;;;5071819;28;20209;-66
2021/04/09 07:45:05;;;;;;;61.83;7.55;;;6.80;1.00;;;;;;5072051;28;20209;-66
2021/04/09 07:47:32;;;;;;;62.75;6.63;;;7.00;1.00;;;;;;5072101;28;20240;-66
2021/04/09 07:50:10;;;;;;;62.38;7.40;;;7.30;1.00;;;;;;5071700;28;20728;-67
2021/04/09 07:52:42;;;;;;;59.60;6.20;;;7.50;1.00;;;;;;5071844;28;20293;-66
2021/04/09 07:55:14;;;;;;;61.17;7.25;;;7.80;1.00;;;;;;5071563;28;20208;-66
2021/04/09 07:57:40;;;;;;;63.55;7.15;;;8.00;1.00;;;;;;5071794;28;20252;-66
2021/04/09 08:00:22;;;;;;;61.28;6.82;;;8.20;1.00;;;;;;5071561;28;20221;-66
2021/04/09 08:02:50;;;;;;;64.10;7.90;;;8.50;1.00;;;;;;5071739;28;20210;-67
2021/04/09 08:05:18;;;;;;;63.65;7.13;;;8.70;1.00;;;;;;5071252;28;20490;-66
2021/04/09 08:07:45;;;;;;;62.40;6.60;;;8.80;1.00;;;;;;5071199;28;20207;-67
2021/04/09 08:10:13;;;;;;;60.40;6.77;;;9.10;1.00;;;;;;5071540;28;20450;-67
2021/04/09 08:12:40;;;;;;;61.95;5.88;;;9.20;1.00;;;;;;5071734;28;20457;-66
2021/04/09 08:15:15;;;;;;;59.10;5.47;;;9.40;1.00;;;;;;5071500;28;20203;-67
2021/04/09 08:17:42;;;;;;;60.80;6.60;;;9.60;1.00;;;;;;5071523;28;20564;-67
2021/04/09 08:20:14;;;;;;;60.67;5.97;;;9.80;1.00;;;;;;5071356;28;20480;-65
2021/04/09 08:22:41;;;;;;;61.07;6.13;;;10.00;1.00;;;;;;5071650;28;20532;-66
2021/04/09 08:25:09;;;;;;;61.47;6.70;;;10.10;1.00;;;;;;5071409;28;20533;-67
2021/04/09 08:27:37;;;;;;;59.17;5.73;;;10.30;1.00;;;;;;5071469;28;20963;-65
2021/04/09 08:30:05;;;;;;;60.70;6.17;;;10.40;1.00;;;;;;5071383;28;20472;-65
2021/04/09 08:32:32;;;;;;;61.03;6.13;;;10.60;1.00;;;;;;5071289;28;20473;-65
2021/04/09 08:35:00;;;;;;;63.13;6.17;;;10.80;1.00;;;;;;5071625;28;20889;-65
2021/04/09 08:37:27;;;;;;;59.77;6.13;;;10.90;1.00;;;;;;5071396;28;20568;-65
2021/04/09 08:39:54;;;;;;;65.17;9.13;;;11.10;1.00;;;;;;5071131;28;20475;-65
2021/04/09 08:42:20;;;;;;;68.93;11.87;;;11.40;1.00;;;;;;5071191;28;20458;-66
2021/04/09 08:44:47;;;;;;;63.50;7.13;;;11.60;1.00;;;;;;5071359;28;20454;-66
2021/04/09 08:47:17;;;;;;;60.07;6.00;;;11.80;1.00;;;;;;5071199;28;20537;-66
2021/04/09 08:49:43;;;;;;;61.20;7.37;;;11.90;1.00;;;;;;5071475;28;20546;-66
2021/04/09 08:52:13;;;;;;;62.77;6.63;;;12.00;1.00;;;;;;5071309;28;20446;-66
2021/04/09 08:54:49;;;;;;;59.87;6.10;;;12.20;1.00;;;;;;5071287;28;20439;-65
2021/04/09 08:57:27;;;;;;;60.67;6.90;;;12.30;1.00;;;;;;5071175;28;20473;-66
2021/04/09 09:00:07;;;;;;;60.80;7.07;;;12.50;1.00;;;;;;5071131;28;20554;-65
2021/04/09 09:02:45;;;;;;;59.50;6.70;;;12.60;1.00;;;;;;5071359;28;20885;-66
2021/04/09 09:05:13;;;;;;;62.53;7.17;;;12.90;1.00;;;;;;5071228;28;20814;-66
2021/04/09 09:08:05;;;;;;;60.80;5.67;;;13.00;1.00;;;;;;5071248;28;20450;-66
2021/04/09 09:10:54;;;;;;;59.97;5.47;;;13.20;1.00;;;;;;5071018;28;21137;-65
2021/04/09 09:13:25;;;;;;;61.30;5.63;;;13.50;1.00;;;;;;5070969;28;20457;-66
2021/04/09 09:15:56;;;;;;;61.43;7.80;;;13.50;1.00;;;;;;5070858;28;20530;-66
2021/04/09 09:18:57;;;;;;;59.20;5.77;;;13.60;1.00;;;;;;5071937;28;20987;-66
2021/04/09 09:21:36;;;;;;;59.60;5.90;;;13.60;1.00;;;;;;5012492;28;20537;-66
2021/04/09 09:24:16;;;;;;;59.37;5.90;;;13.60;1.00;;;;;;5012217;28;20467;-67
2021/04/09 09:26:43;;;;;;;59.90;5.63;;;13.60;1.00;;;;;;5051209;28;20445;-67
2021/04/09 09:29:28;;;;;;;60.37;5.53;;;13.70;1.00;;;;;;5074413;28;20549;-67
2021/04/09 09:32:00;;;;;;;61.80;5.77;;;13.90;1.00;;;;;;5074374;28;20447;-67
2021/04/09 09:34:35;;;;;;;61.53;5.53;;;14.10;1.00;;;;;;5074373;28;20442;-67
2021/04/09 09:37:06;;;;;;;61.00;6.60;;;14.20;1.00;;;;;;5074029;28;20574;-66
2021/04/09 09:39:35;;;;;;;63.17;6.10;;;14.40;1.00;;;;;;5074342;28;20592;-66
2021/04/09 09:42:02;;;;;;;73.03;6.63;;;14.50;1.00;;;;;;5074137;28;20451;-66
2021/04/09 09:44:34;;;;;;;61.03;5.77;;;14.50;1.00;;;;;;5074151;28;20450;-66
2021/04/09 09:47:06;;;;;;;59.27;5.40;;;14.40;1.00;;;;;;5073986;28;20458;-66
2021/04/09 09:49:35;;;;;;;59.90;5.40;;;14.40;1.00;;;;;;5073945;28;20467;-67
2021/04/09 09:52:03;;;;;;;59.67;4.77;;;14.50;1.00;;;;;;5073994;28;20447;-67
2021/04/09 09:54:31;;;;;;;60.60;5.40;;;14.70;1.00;;;;;;5074167;28;20939;-67
2021/04/09 09:56:59;;;;;;;58.40;4.70;;;14.70;1.00;;;;;;5073990;28;20850;-67
2021/04/09 09:59:28;;;;;;;59.80;5.23;;;14.80;1.00;;;;;;5073719;28;20494;-67
2021/04/09 10:01:56;;;;;;;61.33;5.90;;;14.90;1.00;;;;;;5073605;28;20451;-67
2021/04/09 10:04:23;;;;;;;58.83;5.07;;;15.00;1.00;;;;;;5073779;28;20453;-67
2021/04/09 10:06:54;;;;;;;59.80;5.57;;;14.90;1.00;;;;;;5073934;28;20443;-67
2021/04/09 10:09:30;;;;;;;62.00;5.87;;;15.00;1.00;;;;;;5073656;28;20521;-67
2021/04/09 10:12:01;;;;;;;58.93;5.07;;;15.30;1.00;;;;;;5073594;28;20443;-65
2021/04/09 10:14:28;;;;;;;58.30;5.20;;;15.80;1.00;;;;;;5073688;28;20518;-66
2021/04/09 10:16:58;;;;;;;60.13;5.00;;;16.30;1.00;;;;;;5073509;28;20533;-67
2021/04/09 10:19:24;;;;;;;61.40;4.80;;;17.00;1.00;;;;;;5073452;28;20845;-66
2021/04/09 10:21:52;;;;;;;59.37;5.40;;;17.60;1.00;;;;;;5073436;28;20450;-66
2021/04/09 10:24:21;;;;;;;59.40;5.20;;;17.70;1.00;;;;;;5073360;28;20437;-66
2021/04/09 10:26:52;;;;;;;58.77;5.20;;;18.00;1.00;;;;;;5073259;28;20450;-66
2021/04/09 10:29:24;;;;;;;59.50;4.90;;;18.20;1.00;;;;;;5072608;28;20547;-66
2021/04/09 10:31:51;;;;;;;62.00;5.80;;;18.10;1.00;;;;;;5073094;28;20448;-66
2021/04/09 10:34:21;;;;;;;60.40;5.43;;;17.80;1.00;;;;;;5073284;28;20480;-66
2021/04/09 10:36:48;;;;;;;64.33;5.33;;;17.50;1.00;;;;;;5073255;28;20572;-66
2021/04/09 10:39:16;;;;;;;58.77;5.20;;;17.30;1.00;;;;;;5072889;28;20476;-66
2021/04/09 10:41:46;;;;;;;65.60;5.50;;;17.00;1.00;;;;;;5072830;28;20467;-66
2021/04/09 10:44:16;;;;;;;59.40;4.73;;;16.90;1.00;;;;;;5073254;28;20455;-66
2021/04/09 10:46:45;;;;;;;66.30;5.67;;;17.00;1.00;;;;;;5073126;28;20445;-66
2021/04/09 10:49:13;;;;;;;60.13;5.00;;;17.10;1.00;;;;;;5072781;28;20494;-66
2021/04/09 10:51:41;;;;;;;59.03;5.37;;;17.10;1.00;;;;;;5072699;28;20540;-67
2021/04/09 10:54:08;;;;;;;61.30;5.87;;;17.20;1.00;;;;;;5072694;28;20441;-66
2021/04/09 10:56:35;;;;;;;59.40;5.33;;;17.20;1.00;;;;;;5072674;28;20590;-67
2021/04/09 10:59:07;;;;;;;57.93;4.73;;;17.10;1.00;;;;;;5072882;28;20547;-66
2021/04/09 11:01:33;;;;;;;58.40;5.13;;;17.10;1.00;;;;;;5072724;28;20451;-67
2021/04/09 11:04:01;;;;;;;57.67;4.37;;;17.20;1.00;;;;;;5072355;28;20531;-66
2021/04/09 11:06:28;;;;;;;57.30;3.97;;;17.30;1.00;;;;;;5072495;28;20614;-66
2021/04/09 11:09:04;;;;;;;57.57;4.50;;;17.30;1.00;;;;;;5072263;28;20900;-66
2021/04/09 11:11:33;;;;;;;58.50;4.93;;;17.20;1.00;;;;;;5072359;28;20449;-66
2021/04/09 11:14:07;;;;;;;62.03;4.20;;;17.30;1.00;;;;;;5072196;28;21106;-66
2021/04/09 11:16:50;;;;;;;61.50;4.40;;;17.30;1.00;;;;;;5072281;28;20531;-66
2021/04/09 11:19:31;;;;;;;58.37;4.40;;;17.20;1.00;;;;;;5071997;28;20900;-66
2021/04/09 11:21:58;;;;;;;58.47;4.97;;;16.90;1.00;;;;;;5072488;28;20440;-66
2021/04/09 11:24:29;;;;;;;57.50;4.50;;;16.80;1.00;;;;;;5072506;28;20594;-66
2021/04/09 11:26:56;;;;;;;60.60;4.30;;;16.70;1.00;;;;;;5072073;28;20456;-67
2021/04/09 11:29:27;;;;;;;59.53;4.20;;;16.70;1.00;;;;;;5071964;28;20608;-67
2021/04/09 11:32:17;;;;;;;57.23;3.93;;;16.70;1.00;;;;;;5072048;28;20453;-67
2021/04/09 11:34:46;;;;;;;58.80;4.63;;;16.80;1.00;;;;;;5072299;28;20539;-67
2021/04/09 11:37:13;;;;;;;60.60;4.60;;;16.80;1.00;;;;;;5072189;28;20480;-67
2021/04/09 11:39:54;;;;;;;58.60;4.57;;;16.90;1.00;;;;;;5071806;28;20526;-67
2021/04/09 11:42:29;;;;;;;57.90;4.70;;;17.10;1.00;;;;;;5071219;28;20530;-65
2021/04/09 11:44:56;;;;;;;60.77;4.30;;;17.20;1.00;;;;;;5072025;28;20538;-65
2021/04/09 11:47:25;;;;;;;58.10;4.40;;;17.20;1.00;;;;;;5072244;28;20441;-65
2021/04/09 11:50:09;;;;;;;57.43;4.17;;;17.30;1.00;;;;;;5071711;28;20464;-65
2021/04/09 11:52:56;;;;;;;57.87;4.20;;;17.40;1.00;;;;;;5071751;28;20448;-65
2021/04/09 11:55:25;;;;;;;62.90;4.67;;;17.50;1.00;;;;;;5071666;28;20449;-65
2021/04/09 11:57:52;;;;;;;57.83;4.90;;;17.60;1.00;;;;;;5071984;28;20492;-65
2021/04/09 12:00:27;;;;;;;59.30;4.20;;;17.50;1.00;;;;;;5071883;28;20471;-66
2021/04/09 12:02:57;;;;;;;57.57;3.87;;;17.50;1.00;;;;;;5071478;28;20454;-66
2021/04/09 12:05:26;;;;;;;61.30;6.00;;;17.80;1.00;;;;;;5072167;28;20559;-66
2021/04/09 12:07:54;;;;;;;58.97;4.17;;;18.30;1.00;;;;;;5071826;28;20449;-66
2021/04/09 12:10:22;;;;;;;57.60;4.30;;;18.70;1.00;;;;;;5071691;28;20549;-66
2021/04/09 12:12:50;;;;;;;59.30;4.60;;;19.20;1.00;;;;;;5071606;28;20784;-66
2021/04/09 12:15:17;;;;;;;58.23;4.60;;;19.60;1.00;;;;;;5071525;28;20462;-66
2021/04/09 12:17:43;;;;;;;57.17;3.70;;;20.60;1.00;;;;;;5071484;28;21080;-66
2021/04/09 12:20:12;;;;;;;58.30;4.40;;;21.80;1.00;;;;;;5071413;28;20452;-66
2021/04/09 12:22:40;;;;;;;58.40;4.50;;;22.60;1.00;;;;;;5071484;28;20445;-66
2021/04/09 12:25:09;;;;;;;61.40;4.63;;;22.80;1.00;;;;;;5071490;28;20540;-66
2021/04/09 12:27:35;;;;;;;60.00;4.60;;;22.40;1.00;;;;;;5071492;28;20509;-66
2021/04/09 12:30:02;;;;;;;58.47;4.50;;;21.90;1.00;;;;;;5071615;28;21025;-66
2021/04/09 12:32:28;;;;;;;58.07;4.27;;;21.70;1.00;;;;;;5071519;28;20447;-66
2021/04/09 12:34:55;;;;;;;60.53;4.90;;;21.40;1.00;;;;;;5071370;28;20506;-66
2021/04/09 12:37:21;;;;;;;59.57;4.20;;;21.10;1.00;;;;;;5071242;28;20998;-66
2021/04/09 12:39:48;;;;;;;59.10;4.40;;;20.80;1.00;;;;;;5071109;28;20468;-66
2021/04/09 12:42:16;;;;;;;64.17;4.00;;;20.80;1.00;;;;;;5071650;28;20794;-66
2021/04/09 12:44:42;;;;;;;61.03;4.37;;;21.00;1.00;;;;;;5071188;28;20526;-66
2021/04/09 12:47:08;;;;;;;57.57;3.80;;;21.30;1.00;;;;;;5071161;28;20509;-66
2021/04/09 12:49:35;;;;;;;57.40;3.73;;;21.50;1.00;;;;;;5071381;28;20504;-66
2021/04/09 12:52:01;;;;;;;60.70;4.20;;;21.70;1.00;;;;;;5072028;28;20530;-66
2021/04/09 12:54:28;;;;;;;60.00;4.00;;;22.30;1.00;;;;;;5075045;28;20494;-66